Kenai Fjords National Park, AK

10:27 AM AKDT on July 26, 2014 (GMT -0800)
Kenai (KAKKENAI2) Elev 95 ft | 60.58 °N, 151.31 °W | Change Station

Current weather conditions updated 4 seconds ago

Mostly Cloudy
Mostly Cloudy
54.7 °F
Feels Like 54.7 °F
N
0.5
Wind Variable Wind from SSE
Gusts 1.2 mph

Today is forecast to be Warmer than yesterday.

Today
High -- | Low -- °F
--% Chance of Precip.
Yesterday
High -- | Low -- °F
Precip. -- in
5:27 AM 10:53 PM
Waning Crescent, 0% visible
Pressure 29.91 in
Visibility 2.5 miles
Clouds Mostly Cloudy 100 ft
Dew Point 53 °F
Humidity 95%
Rainfall 0.00 in
Snow Depth Not available.
UV 1.7 out of 12
Pollen Not available.
Air Quality Not available.
Flu Activity Not available.
SPECI PAEN 261639Z 00000KT 2 1/2SM BR BKN001 11/11 A2991 RMK AO2

More Conditions Fewer Conditions

Pressure 29.91 in
Visibility 2.5 miles
Clouds Mostly Cloudy 100 ft
Dew Point 53 °F
Humidity 95%
Rainfall 0.00 in
Snow Depth Not available.
UV 1.7 out of 12
Pollen Not available.
Air Quality Not available.
Flu Activity Not available.
SPECI PAEN 261639Z 00000KT 2 1/2SM BR BKN001 11/11 A2991 RMK AO2

More Conditions Fewer Conditions

10-Day Weather Forecast

Almanac

Astronomy

Jul. 26, 2014 Rise Set
Actual Time 5:27 AM AKDT 10:53 PM AKDT
Civil Twilight 4:19 AM AKDT 12:00 AM AKDT
Nautical Twilight 2:43 AM AKDT 1:38 AM AKDT
Astronomical Twilight Sun does not rise Sun does not rise
Moon 5:54 AM AKDT 10:01 PM AKDT
Length of Visible Light 19h 41m
Length of Day
17h 25m
Tomorrow will be 4m 45s shorter.
Waning Crescent, 0% of the Moon is Illuminated
Today
Waning Crescent
Jul 26
New
Aug 3
First Quarter
Aug 10
Full
Aug 17
Last Quarter

Today's Extremes

State Highs State Lows

Community

WunderPhotos

Upload Photos

1,737,654 photos uploaded!

Nearby

Snow Depth

Station Depth Elevation
Cooper Lake 25 in 1200 ft
MF Bradley River 132 in 2300 ft
Summit Creek 0 in 1400 ft
Mcneil Canyon 1 in 1320 ft
Grouse Creek Divide 0 in 700 ft

Earthquake Activity

City Distance Mag. Time & Date
No recent earthquake activity has been reported nearby.
Minimum magnitude displayed is 2.5.

Coastal Water Temperatures

Place Temperature
No Stations Reporting

Nearby Weather Stations

Station Location Temp. Dew Point Humidity Wind Precip. Elev Updated Type
Kenai, Kenai, AK 54.7 °F 53 °F 95% SSE  at  0.5 mph 0.00 in / hr 95 ft 10:27 AM AKDT Rapid Fire
W. Corral PWS, Soldotna, AK 56.7 °F 56 °F 99% South  at  0.7 mph 0.00 in / hr 110 ft 10:27 AM AKDT Rapid Fire
RAWS SOLDOTNA AKKKS AK, Soldotna, AK 54 °F 53 °F 98% NW  at  1 mph 0.00 in / hr 154 ft 9:27 AM AKDT MADIS
RAWS SWANSON RIVER AK, Sterling, AK 57 °F 56 °F 95% North  at  1 mph 0.00 in / hr 215 ft 9:50 AM AKDT MADIS

Show More Stations Show Fewer Stations